sensor_id;sensor_type;location;lat;lon;timestamp;P1;durP1;ratioP1;P2;durP2;ratioP2
52878;SDS011;38747;53.140;6.498;2022-12-24T00:01:55;26.40;;;11.13;;
52878;SDS011;38747;53.140;6.498;2022-12-24T00:04:21;24.10;;;11.10;;
52878;SDS011;38747;53.140;6.498;2022-12-24T00:06:46;26.10;;;10.70;;
52878;SDS011;38747;53.140;6.498;2022-12-24T00:09:12;26.33;;;10.65;;
52878;SDS011;38747;53.140;6.498;2022-12-24T00:11:38;23.23;;;9.77;;
52878;SDS011;38747;53.140;6.498;2022-12-24T00:14:03;22.25;;;9.85;;
52878;SDS011;38747;53.140;6.498;2022-12-24T00:16:29;23.90;;;10.03;;
52878;SDS011;38747;53.140;6.498;2022-12-24T00:18:55;23.98;;;10.55;;
52878;SDS011;38747;53.140;6.498;2022-12-24T00:21:20;23.80;;;10.43;;
52878;SDS011;38747;53.140;6.498;2022-12-24T00:23:46;23.95;;;9.85;;
52878;SDS011;38747;53.140;6.498;2022-12-24T00:26:12;20.70;;;9.07;;
52878;SDS011;38747;53.140;6.498;2022-12-24T00:28:38;22.55;;;9.93;;
52878;SDS011;38747;53.140;6.498;2022-12-24T00:31:11;24.48;;;9.82;;
52878;SDS011;38747;53.140;6.498;2022-12-24T00:33:39;24.38;;;10.40;;
52878;SDS011;38747;53.140;6.498;2022-12-24T00:36:05;22.53;;;10.40;;
52878;SDS011;38747;53.140;6.498;2022-12-24T00:38:31;22.42;;;9.60;;
52878;SDS011;38747;53.140;6.498;2022-12-24T00:40:57;22.03;;;9.73;;
52878;SDS011;38747;53.140;6.498;2022-12-24T00:43:28;21.70;;;10.02;;
52878;SDS011;38747;53.140;6.498;2022-12-24T00:45:54;23.95;;;10.23;;
52878;SDS011;38747;53.140;6.498;2022-12-24T00:48:20;22.05;;;10.55;;
52878;SDS011;38747;53.140;6.498;2022-12-24T00:50:47;22.63;;;9.52;;
52878;SDS011;38747;53.140;6.498;2022-12-24T00:53:15;22.47;;;9.33;;
52878;SDS011;38747;53.140;6.498;2022-12-24T00:55:41;21.02;;;9.65;;
52878;SDS011;38747;53.140;6.498;2022-12-24T00:58:07;21.48;;;10.10;;
52878;SDS011;38747;53.140;6.498;2022-12-24T01:00:32;21.27;;;9.73;;
52878;SDS011;38747;53.140;6.498;2022-12-24T01:02:58;23.85;;;10.27;;
52878;SDS011;38747;53.140;6.498;2022-12-24T01:05:24;25.77;;;10.23;;
52878;SDS011;38747;53.140;6.498;2022-12-24T01:07:49;26.93;;;10.03;;
52878;SDS011;38747;53.140;6.498;2022-12-24T01:10:16;24.13;;;9.52;;
52878;SDS011;38747;53.140;6.498;2022-12-24T01:12:43;22.42;;;9.52;;
52878;SDS011;38747;53.140;6.498;2022-12-24T01:15:11;21.58;;;9.80;;
52878;SDS011;38747;53.140;6.498;2022-12-24T01:17:38;26.90;;;9.90;;
52878;SDS011;38747;53.140;6.498;2022-12-24T01:20:05;24.27;;;9.75;;
52878;SDS011;38747;53.140;6.498;2022-12-24T01:22:32;23.02;;;9.80;;
52878;SDS011;38747;53.140;6.498;2022-12-24T01:24:59;25.25;;;10.20;;
52878;SDS011;38747;53.140;6.498;2022-12-24T01:27:24;24.83;;;10.43;;
52878;SDS011;38747;53.140;6.498;2022-12-24T01:29:50;23.50;;;9.70;;
52878;SDS011;38747;53.140;6.498;2022-12-24T01:32:15;26.60;;;9.33;;
52878;SDS011;38747;53.140;6.498;2022-12-24T01:34:41;27.42;;;9.00;;
52878;SDS011;38747;53.140;6.498;2022-12-24T01:37:07;25.90;;;10.60;;
52878;SDS011;38747;53.140;6.498;2022-12-24T01:39:32;27.47;;;10.33;;
52878;SDS011;38747;53.140;6.498;2022-12-24T01:41:58;27.27;;;11.30;;
52878;SDS011;38747;53.140;6.498;2022-12-24T01:44:43;24.67;;;10.65;;
52878;SDS011;38747;53.140;6.498;2022-12-24T01:49:53;25.43;;;10.53;;
52878;SDS011;38747;53.140;6.498;2022-12-24T01:52:27;26.95;;;10.77;;
52878;SDS011;38747;53.140;6.498;2022-12-24T01:57:31;28.60;;;11.02;;
52878;SDS011;38747;53.140;6.498;2022-12-24T02:00:03;32.03;;;10.70;;
52878;SDS011;38747;53.140;6.498;2022-12-24T02:02:33;28.30;;;10.70;;
52878;SDS011;38747;53.140;6.498;2022-12-24T02:05:07;31.42;;;10.48;;
52878;SDS011;38747;53.140;6.498;2022-12-24T02:07:38;27.75;;;11.00;;
52878;SDS011;38747;53.140;6.498;2022-12-24T02:10:06;30.92;;;10.90;;
52878;SDS011;38747;53.140;6.498;2022-12-24T02:12:35;28.55;;;11.43;;
52878;SDS011;38747;53.140;6.498;2022-12-24T02:15:03;27.10;;;11.07;;
52878;SDS011;38747;53.140;6.498;2022-12-24T02:25:40;26.83;;;10.98;;
52878;SDS011;38747;53.140;6.498;2022-12-24T02:31:35;29.65;;;10.77;;
52878;SDS011;38747;53.140;6.498;2022-12-24T02:36:35;28.92;;;10.60;;
52878;SDS011;38747;53.140;6.498;2022-12-24T02:39:09;29.33;;;11.15;;
52878;SDS011;38747;53.140;6.498;2022-12-24T02:41:40;28.40;;;9.87;;
52878;SDS011;38747;53.140;6.498;2022-12-24T02:44:29;25.92;;;10.43;;
52878;SDS011;38747;53.140;6.498;2022-12-24T02:46:58;28.63;;;11.20;;
52878;SDS011;38747;53.140;6.498;2022-12-24T02:49:25;26.25;;;10.27;;
52878;SDS011;38747;53.140;6.498;2022-12-24T02:51:50;25.50;;;10.77;;
52878;SDS011;38747;53.140;6.498;2022-12-24T02:54:16;25.75;;;10.82;;
52878;SDS011;38747;53.140;6.498;2022-12-24T03:07:28;23.38;;;10.07;;
52878;SDS011;38747;53.140;6.498;2022-12-24T03:10:20;25.70;;;9.60;;
52878;SDS011;38747;53.140;6.498;2022-12-24T03:12:56;27.40;;;9.60;;
52878;SDS011;38747;53.140;6.498;2022-12-24T03:15:31;22.15;;;8.98;;
52878;SDS011;38747;53.140;6.498;2022-12-24T03:17:58;24.80;;;9.30;;
52878;SDS011;38747;53.140;6.498;2022-12-24T03:20:46;25.15;;;8.57;;
52878;SDS011;38747;53.140;6.498;2022-12-24T03:23:18;19.85;;;7.63;;
52878;SDS011;38747;53.140;6.498;2022-12-24T03:25:44;26.37;;;8.90;;
52878;SDS011;38747;53.140;6.498;2022-12-24T03:28:11;23.45;;;9.18;;
52878;SDS011;38747;53.140;6.498;2022-12-24T03:30:41;26.85;;;9.02;;
52878;SDS011;38747;53.140;6.498;2022-12-24T03:33:09;21.58;;;8.60;;
52878;SDS011;38747;53.140;6.498;2022-12-24T03:35:36;25.33;;;9.30;;
52878;SDS011;38747;53.140;6.498;2022-12-24T03:38:02;23.95;;;7.93;;
52878;SDS011;38747;53.140;6.498;2022-12-24T03:40:28;22.95;;;7.75;;
52878;SDS011;38747;53.140;6.498;2022-12-24T03:42:54;23.10;;;8.57;;
52878;SDS011;38747;53.140;6.498;2022-12-24T03:45:20;23.52;;;7.40;;
52878;SDS011;38747;53.140;6.498;2022-12-24T03:47:45;22.57;;;7.47;;
52878;SDS011;38747;53.140;6.498;2022-12-24T03:50:11;19.58;;;7.38;;
52878;SDS011;38747;53.140;6.498;2022-12-24T03:52:36;22.03;;;7.53;;
52878;SDS011;38747;53.140;6.498;2022-12-24T03:55:02;25.58;;;7.47;;
52878;SDS011;38747;53.140;6.498;2022-12-24T03:57:28;26.30;;;6.63;;
52878;SDS011;38747;53.140;6.498;2022-12-24T03:59:54;22.85;;;6.10;;
52878;SDS011;38747;53.140;6.498;2022-12-24T04:02:19;24.43;;;5.40;;
52878;SDS011;38747;53.140;6.498;2022-12-24T04:04:45;22.45;;;4.93;;
52878;SDS011;38747;53.140;6.498;2022-12-24T04:07:11;24.23;;;5.10;;
52878;SDS011;38747;53.140;6.498;2022-12-24T04:09:36;22.45;;;4.45;;
52878;SDS011;38747;53.140;6.498;2022-12-24T04:12:03;24.00;;;5.03;;
52878;SDS011;38747;53.140;6.498;2022-12-24T04:14:30;27.85;;;4.95;;
52878;SDS011;38747;53.140;6.498;2022-12-24T04:16:55;24.97;;;4.13;;
52878;SDS011;38747;53.140;6.498;2022-12-24T04:19:21;28.20;;;4.20;;
52878;SDS011;38747;53.140;6.498;2022-12-24T04:21:46;31.87;;;3.93;;
52878;SDS011;38747;53.140;6.498;2022-12-24T04:24:12;25.08;;;3.55;;
52878;SDS011;38747;53.140;6.498;2022-12-24T04:26:38;33.47;;;4.00;;
52878;SDS011;38747;53.140;6.498;2022-12-24T04:29:03;30.52;;;4.00;;
52878;SDS011;38747;53.140;6.498;2022-12-24T04:31:29;24.60;;;3.17;;
52878;SDS011;38747;53.140;6.498;2022-12-24T04:33:54;30.03;;;3.37;;
52878;SDS011;38747;53.140;6.498;2022-12-24T04:36:20;26.98;;;3.28;;
52878;SDS011;38747;53.140;6.498;2022-12-24T04:38:46;25.00;;;3.97;;
52878;SDS011;38747;53.140;6.498;2022-12-24T04:41:19;29.57;;;3.60;;
52878;SDS011;38747;53.140;6.498;2022-12-24T04:43:46;36.25;;;3.33;;
52878;SDS011;38747;53.140;6.498;2022-12-24T04:46:17;28.10;;;2.92;;
52878;SDS011;38747;53.140;6.498;2022-12-24T04:48:45;22.35;;;2.70;;
52878;SDS011;38747;53.140;6.498;2022-12-24T04:51:12;22.75;;;2.97;;
52878;SDS011;38747;53.140;6.498;2022-12-24T04:53:38;33.03;;;2.97;;
52878;SDS011;38747;53.140;6.498;2022-12-24T04:56:18;21.50;;;2.83;;
52878;SDS011;38747;53.140;6.498;2022-12-24T04:58:51;33.38;;;3.65;;
52878;SDS011;38747;53.140;6.498;2022-12-24T05:01:21;26.77;;;3.58;;
52878;SDS011;38747;53.140;6.498;2022-12-24T05:03:52;27.50;;;3.15;;
52878;SDS011;38747;53.140;6.498;2022-12-24T05:06:22;27.73;;;3.17;;
52878;SDS011;38747;53.140;6.498;2022-12-24T05:08:49;29.60;;;3.05;;
52878;SDS011;38747;53.140;6.498;2022-12-24T05:11:17;25.27;;;3.80;;
52878;SDS011;38747;53.140;6.498;2022-12-24T05:13:43;30.97;;;3.17;;
52878;SDS011;38747;53.140;6.498;2022-12-24T05:16:09;28.73;;;3.10;;
52878;SDS011;38747;53.140;6.498;2022-12-24T05:18:36;38.47;;;3.97;;
52878;SDS011;38747;53.140;6.498;2022-12-24T05:21:06;36.97;;;3.08;;
52878;SDS011;38747;53.140;6.498;2022-12-24T05:23:33;26.63;;;2.75;;
52878;SDS011;38747;53.140;6.498;2022-12-24T05:26:22;23.57;;;2.90;;
52878;SDS011;38747;53.140;6.498;2022-12-24T05:28:55;33.67;;;3.40;;
52878;SDS011;38747;53.140;6.498;2022-12-24T05:31:23;24.73;;;3.08;;
52878;SDS011;38747;53.140;6.498;2022-12-24T05:33:50;31.15;;;3.22;;
52878;SDS011;38747;53.140;6.498;2022-12-24T05:36:15;29.63;;;4.17;;
52878;SDS011;38747;53.140;6.498;2022-12-24T05:38:42;30.58;;;3.72;;
52878;SDS011;38747;53.140;6.498;2022-12-24T05:41:08;39.72;;;3.92;;
52878;SDS011;38747;53.140;6.498;2022-12-24T05:43:35;38.40;;;3.10;;
52878;SDS011;38747;53.140;6.498;2022-12-24T05:46:03;25.95;;;3.67;;
52878;SDS011;38747;53.140;6.498;2022-12-24T05:48:31;35.25;;;3.58;;
52878;SDS011;38747;53.140;6.498;2022-12-24T05:50:57;28.73;;;3.72;;
52878;SDS011;38747;53.140;6.498;2022-12-24T05:53:22;27.27;;;3.50;;
52878;SDS011;38747;53.140;6.498;2022-12-24T05:55:48;34.50;;;3.35;;
52878;SDS011;38747;53.140;6.498;2022-12-24T05:58:14;41.47;;;3.87;;
52878;SDS011;38747;53.140;6.498;2022-12-24T06:00:40;23.38;;;3.28;;
52878;SDS011;38747;53.140;6.498;2022-12-24T06:03:06;23.17;;;2.95;;
52878;SDS011;38747;53.140;6.498;2022-12-24T06:05:31;35.63;;;3.73;;
52878;SDS011;38747;53.140;6.498;2022-12-24T06:07:57;38.55;;;4.03;;
52878;SDS011;38747;53.140;6.498;2022-12-24T06:10:23;34.43;;;3.10;;
52878;SDS011;38747;53.140;6.498;2022-12-24T06:12:48;33.45;;;3.65;;
52878;SDS011;38747;53.140;6.498;2022-12-24T06:15:14;25.63;;;3.27;;
52878;SDS011;38747;53.140;6.498;2022-12-24T06:17:40;30.43;;;3.30;;
52878;SDS011;38747;53.140;6.498;2022-12-24T06:20:05;31.17;;;3.58;;
52878;SDS011;38747;53.140;6.498;2022-12-24T06:22:31;36.08;;;3.83;;
52878;SDS011;38747;53.140;6.498;2022-12-24T06:24:57;29.27;;;3.47;;
52878;SDS011;38747;53.140;6.498;2022-12-24T06:27:23;31.07;;;3.07;;
52878;SDS011;38747;53.140;6.498;2022-12-24T06:29:48;30.48;;;2.70;;
52878;SDS011;38747;53.140;6.498;2022-12-24T06:32:14;32.77;;;3.07;;
52878;SDS011;38747;53.140;6.498;2022-12-24T06:34:40;30.50;;;3.50;;
52878;SDS011;38747;53.140;6.498;2022-12-24T06:37:05;30.37;;;3.57;;
52878;SDS011;38747;53.140;6.498;2022-12-24T06:39:31;35.03;;;3.50;;
52878;SDS011;38747;53.140;6.498;2022-12-24T06:41:57;39.07;;;3.97;;
52878;SDS011;38747;53.140;6.498;2022-12-24T06:44:22;31.70;;;3.67;;
52878;SDS011;38747;53.140;6.498;2022-12-24T06:46:48;27.87;;;3.30;;
52878;SDS011;38747;53.140;6.498;2022-12-24T06:49:13;30.35;;;3.72;;
52878;SDS011;38747;53.140;6.498;2022-12-24T06:51:39;30.70;;;3.17;;
52878;SDS011;38747;53.140;6.498;2022-12-24T06:54:05;32.45;;;3.53;;
52878;SDS011;38747;53.140;6.498;2022-12-24T06:56:31;36.33;;;3.50;;
52878;SDS011;38747;53.140;6.498;2022-12-24T06:58:57;35.43;;;3.80;;
52878;SDS011;38747;53.140;6.498;2022-12-24T07:01:22;32.57;;;3.30;;
52878;SDS011;38747;53.140;6.498;2022-12-24T07:03:48;35.28;;;3.70;;
52878;SDS011;38747;53.140;6.498;2022-12-24T07:06:16;32.20;;;3.67;;
52878;SDS011;38747;53.140;6.498;2022-12-24T07:08:45;37.73;;;3.13;;
52878;SDS011;38747;53.140;6.498;2022-12-24T07:11:11;24.90;;;3.42;;
52878;SDS011;38747;53.140;6.498;2022-12-24T07:13:36;28.63;;;3.53;;
52878;SDS011;38747;53.140;6.498;2022-12-24T07:16:02;25.50;;;2.65;;
52878;SDS011;38747;53.140;6.498;2022-12-24T07:18:29;25.10;;;2.57;;
52878;SDS011;38747;53.140;6.498;2022-12-24T07:20:55;28.08;;;3.25;;
52878;SDS011;38747;53.140;6.498;2022-12-24T07:23:21;30.75;;;3.97;;
52878;SDS011;38747;53.140;6.498;2022-12-24T07:25:47;31.63;;;3.70;;
52878;SDS011;38747;53.140;6.498;2022-12-24T07:28:13;33.43;;;3.57;;
52878;SDS011;38747;53.140;6.498;2022-12-24T07:30:38;28.00;;;3.08;;
52878;SDS011;38747;53.140;6.498;2022-12-24T07:33:04;34.67;;;3.80;;
52878;SDS011;38747;53.140;6.498;2022-12-24T07:35:30;34.20;;;4.07;;
52878;SDS011;38747;53.140;6.498;2022-12-24T07:37:55;34.13;;;4.10;;
52878;SDS011;38747;53.140;6.498;2022-12-24T07:40:21;29.10;;;3.25;;
52878;SDS011;38747;53.140;6.498;2022-12-24T07:42:46;28.60;;;3.87;;
52878;SDS011;38747;53.140;6.498;2022-12-24T07:45:12;33.10;;;3.93;;
52878;SDS011;38747;53.140;6.498;2022-12-24T07:47:38;30.00;;;3.42;;
52878;SDS011;38747;53.140;6.498;2022-12-24T07:50:04;38.20;;;4.00;;
52878;SDS011;38747;53.140;6.498;2022-12-24T07:52:30;29.30;;;3.67;;
52878;SDS011;38747;53.140;6.498;2022-12-24T07:54:56;32.25;;;3.97;;
52878;SDS011;38747;53.140;6.498;2022-12-24T07:57:22;25.33;;;3.23;;
52878;SDS011;38747;53.140;6.498;2022-12-24T07:59:47;28.35;;;3.85;;
52878;SDS011;38747;53.140;6.498;2022-12-24T08:02:13;29.40;;;3.77;;
52878;SDS011;38747;53.140;6.498;2022-12-24T08:04:38;33.42;;;3.78;;
52878;SDS011;38747;53.140;6.498;2022-12-24T08:07:05;27.73;;;3.50;;
52878;SDS011;38747;53.140;6.498;2022-12-24T08:09:32;33.67;;;3.75;;
52878;SDS011;38747;53.140;6.498;2022-12-24T08:11:59;27.20;;;4.15;;
52878;SDS011;38747;53.140;6.498;2022-12-24T08:14:26;37.40;;;3.90;;
52878;SDS011;38747;53.140;6.498;2022-12-24T08:16:52;29.37;;;3.33;;
52878;SDS011;38747;53.140;6.498;2022-12-24T08:19:18;28.63;;;4.00;;
52878;SDS011;38747;53.140;6.498;2022-12-24T08:21:44;29.40;;;3.70;;
52878;SDS011;38747;53.140;6.498;2022-12-24T08:24:09;34.80;;;4.20;;
52878;SDS011;38747;53.140;6.498;2022-12-24T08:26:35;35.47;;;4.13;;
52878;SDS011;38747;53.140;6.498;2022-12-24T08:29:01;39.72;;;3.90;;
52878;SDS011;38747;53.140;6.498;2022-12-24T08:31:28;32.45;;;3.50;;
52878;SDS011;38747;53.140;6.498;2022-12-24T08:33:54;30.40;;;3.03;;
52878;SDS011;38747;53.140;6.498;2022-12-24T08:36:20;40.70;;;3.88;;
52878;SDS011;38747;53.140;6.498;2022-12-24T08:38:46;30.77;;;4.40;;
52878;SDS011;38747;53.140;6.498;2022-12-24T08:41:11;32.67;;;3.63;;
52878;SDS011;38747;53.140;6.498;2022-12-24T08:43:37;23.13;;;3.67;;
52878;SDS011;38747;53.140;6.498;2022-12-24T08:46:03;30.77;;;3.93;;
52878;SDS011;38747;53.140;6.498;2022-12-24T08:48:30;30.08;;;3.55;;
52878;SDS011;38747;53.140;6.498;2022-12-24T08:50:56;35.17;;;4.03;;
52878;SDS011;38747;53.140;6.498;2022-12-24T08:53:22;31.70;;;4.07;;
52878;SDS011;38747;53.140;6.498;2022-12-24T08:55:48;30.05;;;4.07;;
52878;SDS011;38747;53.140;6.498;2022-12-24T08:58:13;35.33;;;4.47;;
52878;SDS011;38747;53.140;6.498;2022-12-24T09:00:39;32.83;;;3.97;;
52878;SDS011;38747;53.140;6.498;2022-12-24T09:03:05;27.70;;;3.93;;
52878;SDS011;38747;53.140;6.498;2022-12-24T09:05:30;39.93;;;4.03;;
52878;SDS011;38747;53.140;6.498;2022-12-24T09:07:56;32.30;;;3.97;;
52878;SDS011;38747;53.140;6.498;2022-12-24T09:10:22;25.15;;;3.78;;
52878;SDS011;38747;53.140;6.498;2022-12-24T09:12:48;35.63;;;3.60;;
52878;SDS011;38747;53.140;6.498;2022-12-24T09:15:15;33.13;;;3.30;;
52878;SDS011;38747;53.140;6.498;2022-12-24T09:17:40;27.92;;;3.63;;
52878;SDS011;38747;53.140;6.498;2022-12-24T09:20:07;28.15;;;3.33;;
52878;SDS011;38747;53.140;6.498;2022-12-24T09:22:34;20.73;;;3.43;;
52878;SDS011;38747;53.140;6.498;2022-12-24T09:25:01;32.97;;;4.00;;
52878;SDS011;38747;53.140;6.498;2022-12-24T09:27:29;29.40;;;3.40;;
52878;SDS011;38747;53.140;6.498;2022-12-24T09:29:55;30.00;;;3.05;;
52878;SDS011;38747;53.140;6.498;2022-12-24T09:32:21;32.27;;;3.87;;
52878;SDS011;38747;53.140;6.498;2022-12-24T09:34:46;26.50;;;3.60;;
52878;SDS011;38747;53.140;6.498;2022-12-24T09:37:12;27.60;;;3.93;;
52878;SDS011;38747;53.140;6.498;2022-12-24T09:39:37;25.63;;;3.95;;
52878;SDS011;38747;53.140;6.498;2022-12-24T09:47:31;27.52;;;3.78;;
52878;SDS011;38747;53.140;6.498;2022-12-24T09:50:03;27.58;;;3.90;;
52878;SDS011;38747;53.140;6.498;2022-12-24T09:52:51;34.13;;;3.37;;
52878;SDS011;38747;53.140;6.498;2022-12-24T09:55:24;37.35;;;3.97;;
52878;SDS011;38747;53.140;6.498;2022-12-24T09:57:54;26.80;;;4.05;;
52878;SDS011;38747;53.140;6.498;2022-12-24T10:00:25;36.75;;;3.80;;
52878;SDS011;38747;53.140;6.498;2022-12-24T10:02:53;34.42;;;4.03;;
52878;SDS011;38747;53.140;6.498;2022-12-24T10:05:22;37.97;;;4.60;;
52878;SDS011;38747;53.140;6.498;2022-12-24T10:08:07;25.10;;;4.25;;
52878;SDS011;38747;53.140;6.498;2022-12-24T10:10:56;35.05;;;4.03;;
52878;SDS011;38747;53.140;6.498;2022-12-24T10:18:58;31.60;;;4.13;;
52878;SDS011;38747;53.140;6.498;2022-12-24T10:24:38;27.77;;;4.45;;
52878;SDS011;38747;53.140;6.498;2022-12-24T10:27:27;30.58;;;4.15;;
52878;SDS011;38747;53.140;6.498;2022-12-24T10:29:59;26.03;;;3.73;;
52878;SDS011;38747;53.140;6.498;2022-12-24T10:32:29;27.42;;;3.97;;
52878;SDS011;38747;53.140;6.498;2022-12-24T10:35:03;25.58;;;4.15;;
52878;SDS011;38747;53.140;6.498;2022-12-24T10:37:40;25.67;;;3.33;;
52878;SDS011;38747;53.140;6.498;2022-12-24T10:42:55;30.93;;;3.67;;
52878;SDS011;38747;53.140;6.498;2022-12-24T10:45:22;26.38;;;3.72;;
52878;SDS011;38747;53.140;6.498;2022-12-24T10:47:51;24.40;;;3.05;;
52878;SDS011;38747;53.140;6.498;2022-12-24T10:50:28;21.88;;;3.45;;
52878;SDS011;38747;53.140;6.498;2022-12-24T10:53:03;20.07;;;2.60;;
52878;SDS011;38747;53.140;6.498;2022-12-24T10:55:37;21.40;;;2.75;;
52878;SDS011;38747;53.140;6.498;2022-12-24T10:58:03;25.25;;;4.10;;
52878;SDS011;38747;53.140;6.498;2022-12-24T11:00:31;18.67;;;3.03;;
52878;SDS011;38747;53.140;6.498;2022-12-24T11:03:05;25.65;;;3.60;;
52878;SDS011;38747;53.140;6.498;2022-12-24T11:05:58;23.35;;;3.42;;
52878;SDS011;38747;53.140;6.498;2022-12-24T11:08:36;24.08;;;3.13;;
52878;SDS011;38747;53.140;6.498;2022-12-24T11:11:06;21.23;;;3.20;;
52878;SDS011;38747;53.140;6.498;2022-12-24T11:13:36;25.20;;;3.37;;
52878;SDS011;38747;53.140;6.498;2022-12-24T11:18:55;23.35;;;3.17;;
52878;SDS011;38747;53.140;6.498;2022-12-24T11:21:26;26.17;;;2.92;;
52878;SDS011;38747;53.140;6.498;2022-12-24T11:23:57;26.13;;;3.03;;
52878;SDS011;38747;53.140;6.498;2022-12-24T11:26:26;18.17;;;2.90;;
52878;SDS011;38747;53.140;6.498;2022-12-24T11:31:41;24.15;;;3.22;;
52878;SDS011;38747;53.140;6.498;2022-12-24T11:34:27;25.95;;;2.80;;
52878;SDS011;38747;53.140;6.498;2022-12-24T11:37:07;25.77;;;3.15;;
52878;SDS011;38747;53.140;6.498;2022-12-24T11:39:39;19.03;;;2.97;;
52878;SDS011;38747;53.140;6.498;2022-12-24T11:42:06;23.60;;;2.50;;
52878;SDS011;38747;53.140;6.498;2022-12-24T11:44:47;25.80;;;2.72;;
52878;SDS011;38747;53.140;6.498;2022-12-24T11:47:14;21.60;;;3.65;;
52878;SDS011;38747;53.140;6.498;2022-12-24T11:49:39;22.00;;;3.20;;
52878;SDS011;38747;53.140;6.498;2022-12-24T11:54:43;24.73;;;2.73;;
52878;SDS011;38747;53.140;6.498;2022-12-24T11:57:13;26.20;;;3.25;;
52878;SDS011;38747;53.140;6.498;2022-12-24T11:59:45;22.67;;;2.53;;
52878;SDS011;38747;53.140;6.498;2022-12-24T12:04:56;20.02;;;2.50;;
52878;SDS011;38747;53.140;6.498;2022-12-24T12:07:38;27.13;;;2.93;;
52878;SDS011;38747;53.140;6.498;2022-12-24T12:12:43;23.27;;;2.45;;
52878;SDS011;38747;53.140;6.498;2022-12-24T12:15:13;24.83;;;2.92;;
52878;SDS011;38747;53.140;6.498;2022-12-24T12:20:20;25.40;;;2.87;;
52878;SDS011;38747;53.140;6.498;2022-12-24T12:28:35;18.33;;;2.38;;
52878;SDS011;38747;53.140;6.498;2022-12-24T12:31:14;20.65;;;2.38;;
52878;SDS011;38747;53.140;6.498;2022-12-24T12:33:48;22.23;;;2.57;;
52878;SDS011;38747;53.140;6.498;2022-12-24T12:36:35;16.85;;;2.30;;
52878;SDS011;38747;53.140;6.498;2022-12-24T12:39:22;24.35;;;2.80;;
52878;SDS011;38747;53.140;6.498;2022-12-24T12:41:50;16.70;;;2.63;;
52878;SDS011;38747;53.140;6.498;2022-12-24T12:44:33;22.33;;;3.90;;
52878;SDS011;38747;53.140;6.498;2022-12-24T12:47:42;19.15;;;2.97;;
52878;SDS011;38747;53.140;6.498;2022-12-24T12:50:26;14.80;;;2.25;;
52878;SDS011;38747;53.140;6.498;2022-12-24T12:55:46;19.88;;;2.90;;
52878;SDS011;38747;53.140;6.498;2022-12-24T13:01:11;18.45;;;2.65;;
52878;SDS011;38747;53.140;6.498;2022-12-24T13:14:44;16.13;;;2.33;;
52878;SDS011;38747;53.140;6.498;2022-12-24T13:23:01;13.63;;;2.08;;
52878;SDS011;38747;53.140;6.498;2022-12-24T13:25:37;18.67;;;2.40;;
52878;SDS011;38747;53.140;6.498;2022-12-24T13:30:44;18.70;;;2.42;;
52878;SDS011;38747;53.140;6.498;2022-12-24T13:33:12;16.77;;;2.20;;
52878;SDS011;38747;53.140;6.498;2022-12-24T13:36:04;17.52;;;2.08;;
52878;SDS011;38747;53.140;6.498;2022-12-24T13:38:39;21.57;;;2.60;;
52878;SDS011;38747;53.140;6.498;2022-12-24T13:54:39;24.50;;;2.47;;
52878;SDS011;38747;53.140;6.498;2022-12-24T13:57:51;12.38;;;2.08;;
52878;SDS011;38747;53.140;6.498;2022-12-24T14:02:49;16.77;;;2.47;;
52878;SDS011;38747;53.140;6.498;2022-12-24T14:07:49;17.48;;;2.60;;
52878;SDS011;38747;53.140;6.498;2022-12-24T14:10:20;21.75;;;2.40;;
52878;SDS011;38747;53.140;6.498;2022-12-24T14:12:50;17.85;;;2.42;;
52878;SDS011;38747;53.140;6.498;2022-12-24T14:18:17;14.03;;;1.73;;
52878;SDS011;38747;53.140;6.498;2022-12-24T14:20:47;20.90;;;2.55;;
52878;SDS011;38747;53.140;6.498;2022-12-24T14:26:10;18.75;;;2.20;;
52878;SDS011;38747;53.140;6.498;2022-12-24T14:28:42;18.50;;;2.40;;
52878;SDS011;38747;53.140;6.498;2022-12-24T14:31:13;14.70;;;2.20;;
52878;SDS011;38747;53.140;6.498;2022-12-24T14:33:41;17.30;;;2.08;;
52878;SDS011;38747;53.140;6.498;2022-12-24T14:36:07;14.73;;;2.38;;
52878;SDS011;38747;53.140;6.498;2022-12-24T14:38:34;18.30;;;2.17;;
52878;SDS011;38747;53.140;6.498;2022-12-24T14:46:38;17.40;;;2.10;;
52878;SDS011;38747;53.140;6.498;2022-12-24T14:49:12;13.15;;;2.33;;
52878;SDS011;38747;53.140;6.498;2022-12-24T14:52:43;19.55;;;2.47;;
52878;SDS011;38747;53.140;6.498;2022-12-24T14:54:55;18.77;;;2.45;;
52878;SDS011;38747;53.140;6.498;2022-12-24T14:57:21;17.40;;;2.53;;
52878;SDS011;38747;53.140;6.498;2022-12-24T14:59:56;13.73;;;1.92;;
52878;SDS011;38747;53.140;6.498;2022-12-24T15:02:44;12.68;;;1.90;;
52878;SDS011;38747;53.140;6.498;2022-12-24T15:05:22;12.27;;;2.83;;
52878;SDS011;38747;53.140;6.498;2022-12-24T15:08:00;16.05;;;3.13;;
52878;SDS011;38747;53.140;6.498;2022-12-24T15:13:47;12.90;;;2.20;;
52878;SDS011;38747;53.140;6.498;2022-12-24T15:15:58;13.02;;;2.13;;
52878;SDS011;38747;53.140;6.498;2022-12-24T15:18:26;17.83;;;3.17;;
52878;SDS011;38747;53.140;6.498;2022-12-24T15:20:56;10.80;;;2.45;;
52878;SDS011;38747;53.140;6.498;2022-12-24T15:23:31;13.68;;;2.33;;
52878;SDS011;38747;53.140;6.498;2022-12-24T15:26:15;13.40;;;2.38;;
52878;SDS011;38747;53.140;6.498;2022-12-24T15:28:44;13.73;;;2.45;;
52878;SDS011;38747;53.140;6.498;2022-12-24T15:31:20;13.30;;;2.80;;
52878;SDS011;38747;53.140;6.498;2022-12-24T15:33:47;15.40;;;2.72;;
52878;SDS011;38747;53.140;6.498;2022-12-24T15:36:15;12.00;;;2.40;;
52878;SDS011;38747;53.140;6.498;2022-12-24T15:38:50;14.93;;;2.30;;
52878;SDS011;38747;53.140;6.498;2022-12-24T15:41:18;14.05;;;2.70;;
52878;SDS011;38747;53.140;6.498;2022-12-24T15:43:49;13.70;;;2.60;;
52878;SDS011;38747;53.140;6.498;2022-12-24T15:46:17;18.58;;;3.42;;
52878;SDS011;38747;53.140;6.498;2022-12-24T15:48:51;13.88;;;2.33;;
52878;SDS011;38747;53.140;6.498;2022-12-24T15:51:23;13.77;;;2.40;;
52878;SDS011;38747;53.140;6.498;2022-12-24T15:54:01;12.57;;;2.22;;
52878;SDS011;38747;53.140;6.498;2022-12-24T15:56:40;14.43;;;2.10;;
52878;SDS011;38747;53.140;6.498;2022-12-24T16:01:40;13.63;;;2.28;;
52878;SDS011;38747;53.140;6.498;2022-12-24T16:04:14;17.20;;;2.80;;
52878;SDS011;38747;53.140;6.498;2022-12-24T16:06:52;12.88;;;2.50;;
52878;SDS011;38747;53.140;6.498;2022-12-24T16:09:39;15.23;;;2.73;;
52878;SDS011;38747;53.140;6.498;2022-12-24T16:12:11;14.68;;;3.20;;
52878;SDS011;38747;53.140;6.498;2022-12-24T16:14:52;18.63;;;5.05;;
52878;SDS011;38747;53.140;6.498;2022-12-24T16:17:24;21.40;;;4.30;;
52878;SDS011;38747;53.140;6.498;2022-12-24T16:19:52;18.50;;;5.10;;
52878;SDS011;38747;53.140;6.498;2022-12-24T16:22:24;18.30;;;6.67;;
52878;SDS011;38747;53.140;6.498;2022-12-24T16:25:29;20.90;;;5.95;;
52878;SDS011;38747;53.140;6.498;2022-12-24T16:27:50;17.13;;;4.72;;
52878;SDS011;38747;53.140;6.498;2022-12-24T16:30:17;15.40;;;4.63;;
52878;SDS011;38747;53.140;6.498;2022-12-24T16:32:43;14.95;;;4.32;;
52878;SDS011;38747;53.140;6.498;2022-12-24T16:35:44;13.80;;;3.20;;
52878;SDS011;38747;53.140;6.498;2022-12-24T16:38:03;19.23;;;3.15;;
52878;SDS011;38747;53.140;6.498;2022-12-24T16:40:28;16.73;;;3.28;;
52878;SDS011;38747;53.140;6.498;2022-12-24T16:42:57;19.87;;;3.20;;
52878;SDS011;38747;53.140;6.498;2022-12-24T16:45:42;15.30;;;2.83;;
52878;SDS011;38747;53.140;6.498;2022-12-24T16:48:10;13.82;;;2.88;;
52878;SDS011;38747;53.140;6.498;2022-12-24T16:50:48;15.90;;;2.90;;
52878;SDS011;38747;53.140;6.498;2022-12-24T16:53:15;18.90;;;2.87;;
52878;SDS011;38747;53.140;6.498;2022-12-24T16:55:42;16.70;;;3.00;;
52878;SDS011;38747;53.140;6.498;2022-12-24T16:58:10;16.63;;;3.45;;